ADDS METAR Data INFO
IDs: Format: Raw Decoded Include TAF

Data at: 0231 UTC 22 Jul 2017

KGGG 220153Z 15005KT 10SM CLR 29/24 A2994 RMK AO2 SLP129 T02940239
KGGG 220053Z 13005KT 10SM CLR 32/25 A2993 RMK AO2 SLP127 T03170250
KGGG 212353Z 15005KT 10SM FEW055 33/24 A2992 RMK AO2 SLP125 T03330239 10361 20333 56014
KGGG 212253Z AUTO VRB05KT 10SM FEW055 36/21 A2993 RMK AO2 SLP126 T03560211
KGGG 212153Z 16007KT 120V200 10SM SCT055 36/22 A2994 RMK AO2 SLP131 T03560222
KGGG 212053Z COR 16003KT 10SM SCT055 36/22 A2996 RMK AO2 SLP138 T03560222 58019
KGGG 211953Z 13004KT 10SM SCT050 34/22 A2998 RMK AO2 SLP144 T03390222
KGGG 211853Z 16006KT 10SM SCT045 34/23 A3001 RMK AO2 SLP152 T03440228
KGGG 211753Z 15005KT 10SM SCT043 34/23 A3002 RMK AO2 SLP157 T03440228 10344 20256 58008
KGGG 211653Z COR 23006KT 10SM SCT036 34/24 A3003 RMK AO2 SLP161 T03390239
KGGG 211553Z 18003KT 10SM CLR 32/24 A3004 RMK AO2 SLP164 T03220239
KGGG 211453Z 29005KT 10SM CLR 31/24 A3005 RMK AO2 SLP166 T03110239 50005
KGGG 211353Z 25005KT 10SM CLR 29/24 A3005 RMK AO2 SLP168 T02940244
KGGG 211253Z 23004KT 10SM CLR 27/24 A3005 RMK AO2 SLP166 T02720244
KGGG 211153Z 22003KT 10SM CLR 26/24 A3003 RMK AO2 SLP162 T02560239 10272 20250 53007
KGGG 211053Z AUTO 17003KT 10SM CLR 25/24 A3002 RMK AO2 SLP157 T02500239
KGGG 210953Z AUTO 22004KT 10SM CLR 26/24 A3001 RMK AO2 SLP154 T02610239
KGGG 210853Z AUTO 18003KT 10SM CLR 25/24 A3001 RMK AO2 SLP154 T02500239 56001
KGGG 210753Z AUTO 00000KT 10SM CLR 26/24 A3001 RMK AO2 SLP154 T02560239
KGGG 210653Z AUTO 15003KT 10SM CLR 26/24 A3001 RMK AO2 SLP154 T02610239
KGGG 210553Z AUTO 20005KT 10SM CLR 27/24 A3002 RMK AO2 SLP155 T02670244 10344 20267 403610244 50001
KGGG 210453Z AUTO 17004KT 10SM CLR 27/24 A3002 RMK AO2 SLP158 T02720244
KGGG 210353Z AUTO 17005KT 10SM CLR 28/24 A3003 RMK AO2 SLP159 T02830244
KGGG 210253Z AUTO 17003KT 10SM CLR 29/24 A3001 RMK AO2 SLP155 T02890244 53006
KGGG 210153Z 14004KT 10SM FEW044 30/25 A3000 RMK AO2 SLP150 T03000250
KGGG 210053Z 15005KT 10SM FEW044 32/24 A2999 RMK AO2 SLP148 T03220244
KGGG 202353Z 14003KT 10SM FEW044 34/22 A2999 RMK AO2 SLP149 T03440222 10361 20333 56015
KGGG 202253Z 00000KT 10SM FEW050 35/23 A3000 RMK AO2 SLP150 T03500228
KGGG 202153Z 16006KT 10SM FEW044 34/23 A3002 RMK AO2 SLP158 T03440233
KGGG 202053Z 20004KT 10SM SCT050 36/23 A3004 RMK AO2 SLP163 T03560228 57024
KGGG 201953Z COR 15007KT 10SM SCT050 35/24 A3006 RMK AO2 SLP171 T03500239
KGGG 201853Z 21007KT 10SM SCT047 33/23 A3009 RMK AO2 SLP181 T03330233
KGGG 201753Z 24007KT 190V270 10SM SCT039 34/24 A3011 RMK AO2 SLP187 T03390239 10339 20256 58008
KGGG 201653Z COR 22006KT 10SM SCT035 32/24 A3013 RMK AO2 SLP196 T03220239
KGGG 201553Z 26007KT 10SM SCT033 32/25 A3014 RMK AO2 SLP199 T03220250
KGGG 201453Z 24008KT 10SM CLR 31/25 A3013 RMK AO2 SLP196 T03110250 50007